Blue Diamond, NV (89004)

4:46 PM PDT on August 29, 2014 (GMT -0700)
Red Rock Country Club | Change Station
CLOSE
Current Station
Personal Weather Station
Location: Las Vegas, NV
Elevation: 3087 ft
Nearby Weather Stations

Elev 3087 ft 36.15 °N, 115.34 °W | Updated 6 minutes ago

Clear
Clear
98.5 °F
Feels Like 93 °F
N
8.0
Wind Variable Wind from SE
Gusts 11.0 mph

Today
High -- | Low -- °F
--% Chance of Precip.
Yesterday
High -- | Low -- °F
Precip. -- in
6:11 AM 7:13 PM
Waxing Crescent, 17% visible
Pressure 29.68 in
Visibility 10.0 miles
Clouds Scattered Clouds 25000 ft
Heat Index 93 °F
Dew Point 35 °F
Humidity 11%
Rainfall 0.00 in
Snow Depth Not available.
UV 4 out of 12
Pollen 7.20 out of 12
Ozone Moderate
PM2.5 Good
Flu Activity Not available.
METAR KLAS 292256Z 15006KT 10SM SCT250 39/M01 A2977 RMK AO2 SLP050 T03941011

More Conditions Fewer Conditions

Pressure 29.68 in
Visibility 10.0 miles
Clouds Scattered Clouds 25000 ft
Heat Index 93 °F
Dew Point 35 °F
Humidity 11%
Rainfall 0.00 in
Snow Depth Not available.
UV 4 out of 12
Pollen 7.20 out of 12
Ozone Moderate
PM2.5 Good
Flu Activity Not available.
METAR KLAS 292256Z 15006KT 10SM SCT250 39/M01 A2977 RMK AO2 SLP050 T03941011

More Conditions Fewer Conditions

10-Day Weather Forecast

Almanac

Astronomy

Aug. 29, 2014 Rise Set
Actual Time 6:11 AM PDT 7:13 PM PDT
Civil Twilight 5:44 AM PDT 7:39 PM PDT
Nautical Twilight 5:13 AM PDT 8:10 PM PDT
Astronomical Twilight 4:40 AM PDT 8:43 PM PDT
Moon 9:56 AM PDT 9:22 PM PDT
Length of Visible Light 13h 54m
Length of Day
13h 02m
Tomorrow will be 2m 10s shorter.
Waxing Crescent, 17% of the Moon is Illuminated
Today
Waxing Crescent
Sep 2
First Quarter
Sep 8
Full
Sep 15
Last Quarter
Sep 24
New

Today's Extremes

State Highs State Lows

Community

WunderPhotos

Upload Photos

1,748,379 photos uploaded!

Nearby

Air Quality

  Air Quality AQ Index Pollutant
Yesterday Moderate
OZONE
Yesterday Good
PM10
Current Moderate
OZONE
Current Good
PM2.5
Friday Moderate
OZONE
Friday Good
PM10
Saturday Moderate
OZONE
Saturday Good
PM10
Sunday Moderate
OZONE
Sunday Good
PM10
Monday Moderate
OZONE
Monday Good
PM10
Tuesday Moderate
OZONE
Tuesday Good
PM10
Wednesday Moderate
OZONE
Wednesday Good
PM10

Snow Depth

Station Depth Elevation
Diamond Peak 0 in 8000 ft
Taylor Canyon 0 in 6200 ft
Jacks Peak 4 in 8420 ft
Jack Creek Upper 0 in 7250 ft
Lamance Creek 0 in 6000 ft

Earthquake Activity

City Distance Mag. Time & Date
No recent earthquake activity has been reported nearby.
Minimum magnitude displayed is 2.5.

Coastal Water Temperatures

Place Temperature
No Stations Reporting

Nearby Weather Stations